Time;durP1;ratioP1;P1;durP2;ratioP2;P2;SDS_P1;SDS_P2;PMS_P1;PMS_P2;Temp;Humidity;BMP_temperature;BMP_pressure;BME280_temperature;BME280_humidity;BME280_pressure;Samples;Min_cycle;Max_cycle;Signal;HPM_P1;HPM_P2
2021/08/12 00:02:02;;;;;;;6.70;5.68;;;;;;;28.79;45.24;99740.22;5033149;28;20033;-36
2021/08/12 00:04:28;;;;;;;6.07;5.20;;;;;;;28.92;44.84;99738.41;5033240;28;20394;-37
2021/08/12 00:06:54;;;;;;;6.72;5.70;;;;;;;28.59;45.57;99731.53;5033026;28;20057;-36
2021/08/12 00:09:19;;;;;;;8.63;5.38;;;;;;;28.71;45.52;99732.81;5033033;28;20044;-36
2021/08/12 00:11:45;;;;;;;7.25;5.45;;;;;;;28.81;45.27;99730.53;5032963;28;20034;-37
2021/08/12 00:14:10;;;;;;;5.68;5.00;;;;;;;28.76;45.36;99733.44;5032928;28;20030;-37
2021/08/12 00:16:36;;;;;;;7.38;5.50;;;;;;;28.80;45.24;99731.66;5032925;28;20026;-35
2021/08/12 00:19:01;;;;;;;5.97;5.38;;;;;;;28.79;45.35;99734.75;5031722;28;20049;-36
2021/08/12 00:21:27;;;;;;;8.23;5.28;;;;;;;28.76;45.38;99732.66;5032981;28;20029;-36
2021/08/12 00:23:53;;;;;;;7.90;5.32;;;;;;;28.58;45.80;99740.09;5033028;28;20040;-37
2021/08/12 00:26:18;;;;;;;7.05;5.05;;;;;;;28.69;45.45;99746.81;5032572;28;20025;-36
2021/08/12 00:28:44;;;;;;;5.95;4.80;;;;;;;28.76;45.35;99741.66;5031344;28;20483;-36
2021/08/12 00:31:09;;;;;;;6.57;4.88;;;;;;;28.69;45.25;99743.28;5032594;28;20424;-36
2021/08/12 00:33:35;;;;;;;8.25;5.32;;;;;;;28.57;45.62;99736.53;5032985;28;20109;-36
2021/08/12 00:36:01;;;;;;;6.05;5.40;;;;;;;28.61;45.46;99736.69;5032714;28;20108;-37
2021/08/12 00:38:26;;;;;;;5.50;5.00;;;;;;;28.56;45.35;99720.44;5033020;28;20085;-36
2021/08/12 00:40:52;;;;;;;9.13;5.32;;;;;;;28.74;45.39;99743.91;5032485;28;20473;-36
2021/08/12 00:43:18;;;;;;;6.70;5.32;;;;;;;28.52;45.64;99750.41;5032424;28;20060;-36
2021/08/12 00:45:43;;;;;;;5.70;5.10;;;;;;;28.60;45.44;99757.81;5032479;28;20214;-36
2021/08/12 00:48:09;;;;;;;6.65;5.45;;;;;;;28.39;45.98;99757.63;5032338;28;20040;-36
2021/08/12 00:50:34;;;;;;;6.68;5.40;;;;;;;28.02;47.05;99759.84;5032521;28;20032;-37
2021/08/12 00:53:00;;;;;;;7.40;5.90;;;;;;;28.22;46.55;99754.91;5031166;28;20048;-36
2021/08/12 00:55:25;;;;;;;9.10;5.90;;;;;;;28.36;46.14;99747.31;5032484;28;20053;-36
2021/08/12 00:57:51;;;;;;;9.00;6.50;;;;;;;28.14;46.83;99742.00;5032075;28;20017;-36
2021/08/12 01:00:16;;;;;;;7.15;6.40;;;;;;;28.11;46.98;99751.66;5032323;28;20029;-36
2021/08/12 01:02:42;;;;;;;8.75;6.93;;;;;;;27.86;47.51;99747.75;5031926;28;20029;-36
2021/08/12 01:05:08;;;;;;;9.02;8.02;;;;;;;27.79;48.02;99745.47;5032920;28;20445;-36
2021/08/12 01:07:46;;;;;;;10.18;9.07;;;;;;;27.52;49.12;99745.72;5051837;28;20489;-36
2021/08/12 01:10:17;;;;;;;10.43;8.68;;;;;;;27.54;49.12;99746.22;5051951;28;20033;-36
2021/08/12 01:12:42;;;;;;;12.93;8.40;;;;;;;27.40;49.80;99749.88;5050440;28;20071;-36
2021/08/12 01:15:08;;;;;;;11.00;8.65;;;;;;;27.67;48.92;99748.81;5051735;28;20052;-36
2021/08/12 01:18:00;;;;;;;10.25;8.75;;;;;;;27.73;49.00;99748.69;5051497;28;20033;-36
2021/08/12 01:21:10;;;;;;;10.13;8.45;;;;;;;27.44;49.90;99747.31;5051678;28;20124;-36
2021/08/12 01:23:36;;;;;;;10.57;8.52;;;;;;;27.63;49.37;99739.66;5009526;28;20053;-36
2021/08/12 01:26:01;;;;;;;10.38;8.77;;;;;;;27.37;50.01;99738.75;5043332;28;20052;-35
2021/08/12 01:28:29;;;;;;;14.68;8.82;;;;;;;27.40;49.73;99735.41;5050200;28;20020;-36
2021/08/12 01:31:22;;;;;;;11.13;7.82;;;;;;;27.23;49.77;99701.41;5034077;28;20035;-37
2021/08/12 01:34:02;;;;;;;9.60;7.78;;;;;;;27.53;49.45;99731.75;5049971;28;20024;-36
2021/08/12 01:36:27;;;;;;;9.27;7.65;;;;;;;27.73;48.87;99732.28;5051531;28;20036;-37
2021/08/12 01:38:53;;;;;;;8.50;7.35;;;;;;;27.67;48.83;99734.34;5033466;28;20037;-37
2021/08/12 01:41:19;;;;;;;8.80;7.15;;;;;;;27.75;48.22;99732.75;5033576;28;20036;-37
2021/08/12 01:43:44;;;;;;;8.77;7.13;;;;;;;27.75;48.34;99738.22;5033644;28;20033;-37
2021/08/12 01:46:10;;;;;;;9.27;7.63;;;;;;;27.55;48.74;99729.50;5051333;28;20525;-36
2021/08/12 01:48:35;;;;;;;9.73;6.90;;;;;;;27.64;48.67;99732.25;5050277;28;20048;-36
2021/08/12 01:51:01;;;;;;;8.45;6.88;;;;;;;27.14;49.91;99727.88;5051178;28;20025;-36
2021/08/12 01:53:26;;;;;;;9.68;6.90;;;;;;;27.09;49.98;99728.00;5051193;28;20033;-36
2021/08/12 01:55:52;;;;;;;8.25;6.85;;;;;;;27.14;49.72;99724.34;5051233;28;20032;-37
2021/08/12 01:58:18;;;;;;;9.18;6.53;;;;;;;27.14;49.99;99727.06;5049571;28;20029;-36
2021/08/12 02:00:46;;;;;;;8.65;6.80;;;;;;;27.32;49.44;99726.03;5049581;28;20029;-37
2021/08/12 02:03:14;;;;;;;8.33;7.27;;;;;;;27.44;49.23;99722.72;5049914;28;20060;-36
2021/08/12 02:05:39;;;;;;;8.50;7.50;;;;;;;27.43;49.55;99721.91;5043928;28;20375;-36
2021/08/12 02:08:05;;;;;;;10.23;7.85;;;;;;;27.53;49.23;99726.28;5031051;28;20029;-36
2021/08/12 02:10:30;;;;;;;11.77;8.00;;;;;;;27.45;49.51;99716.91;5029653;28;20041;-36
2021/08/12 02:12:56;;;;;;;9.57;8.20;;;;;;;27.53;49.27;99720.00;5030800;28;20116;-36
2021/08/12 02:15:21;;;;;;;9.98;8.00;;;;;;;27.36;49.77;99716.09;5030732;28;20028;-36
2021/08/12 02:17:47;;;;;;;9.23;7.60;;;;;;;27.04;50.64;99720.75;5030205;28;20119;-36
2021/08/12 02:20:14;;;;;;;9.52;8.00;;;;;;;27.19;50.38;99710.53;5030694;28;20040;-36
2021/08/12 02:22:48;;;;;;;8.90;8.00;;;;;;;27.19;50.47;99714.09;5029632;28;20096;-36
2021/08/12 02:25:19;;;;;;;10.32;8.07;;;;;;;27.05;50.67;99714.16;5030948;28;20088;-36
2021/08/12 02:27:45;;;;;;;10.80;8.50;;;;;;;27.34;49.87;99723.00;5029224;28;20022;-36
2021/08/12 02:30:11;;;;;;;10.30;7.57;;;;;;;27.13;50.42;99722.72;5029360;28;20051;-36
2021/08/12 02:32:37;;;;;;;8.80;7.90;;;;;;;27.28;50.19;99722.31;5029198;28;20039;-37
2021/08/12 02:35:03;;;;;;;10.48;7.88;;;;;;;27.30;50.17;99718.19;5029581;28;20477;-36
2021/08/12 02:37:28;;;;;;;10.95;8.35;;;;;;;27.26;50.18;99717.19;5028866;28;20036;-36
2021/08/12 02:39:54;;;;;;;9.40;8.40;;;;;;;27.24;50.05;99724.84;5028987;28;20040;-36
2021/08/12 02:42:19;;;;;;;9.80;8.35;;;;;;;27.29;49.94;99710.28;5029008;28;20028;-36
2021/08/12 02:44:45;;;;;;;9.80;8.27;;;;;;;27.14;50.09;99727.06;5028982;28;20029;-36
2021/08/12 02:47:10;;;;;;;10.55;8.20;;;;;;;27.27;49.63;99720.72;5029112;28;20018;-38
2021/08/12 02:49:38;;;;;;;10.88;8.40;;;;;;;27.38;49.25;99729.44;5029247;28;20029;-36
2021/08/12 02:52:03;;;;;;;12.43;8.30;;;;;;;27.15;49.68;99729.50;5012814;28;20357;-36
2021/08/12 02:54:29;;;;;;;11.05;8.15;;;;;;;27.11;49.78;99726.59;5012511;28;20025;-36
2021/08/12 02:56:55;;;;;;;9.32;7.93;;;;;;;27.18;49.51;99726.13;5028591;28;20021;-36
2021/08/12 02:59:21;;;;;;;9.10;8.20;;;;;;;27.32;49.12;99727.97;5028672;28;20041;-36
2021/08/12 03:01:46;;;;;;;9.38;8.27;;;;;;;27.32;48.99;99730.69;5028731;28;20060;-36
2021/08/12 03:04:12;;;;;;;11.93;8.20;;;;;;;27.53;48.63;99733.66;5029005;28;20037;-36
2021/08/12 03:06:38;;;;;;;11.45;8.80;;;;;;;27.43;48.82;99742.97;5029742;28;20411;-36
2021/08/12 03:09:03;;;;;;;19.00;15.45;;;;;;;27.65;48.10;99729.19;5028754;28;20040;-36
2021/08/12 03:11:28;;;;;;;27.05;19.17;;;;;;;27.58;48.20;99739.00;5029740;28;20405;-37
2021/08/12 03:13:54;;;;;;;14.30;9.10;;;;;;;27.63;47.57;99734.19;5028637;28;20025;-36
2021/08/12 03:16:20;;;;;;;29.40;22.95;;;;;;;27.47;48.02;99735.72;5028874;28;20083;-36
2021/08/12 03:18:46;;;;;;;20.80;14.55;;;;;;;27.65;47.10;99742.88;5012250;28;20116;-44
2021/08/12 03:21:12;;;;;;;12.35;8.73;;;;;;;27.71;47.11;99748.19;5029995;28;20033;-36
2021/08/12 03:23:38;;;;;;;11.73;8.45;;;;;;;27.74;46.69;99739.34;5029818;28;20049;-36
2021/08/12 03:26:04;;;;;;;10.93;8.80;;;;;;;27.81;46.64;99743.22;5030020;28;20209;-37
2021/08/12 03:28:30;;;;;;;12.00;8.05;;;;;;;27.73;46.87;99752.22;5029964;28;20025;-37
2021/08/12 03:30:55;;;;;;;11.10;7.95;;;;;;;27.79;46.37;99745.47;5034137;28;20025;-36
2021/08/12 03:33:21;;;;;;;10.07;8.50;;;;;;;27.78;46.45;99751.25;5033443;28;20103;-37
2021/08/12 03:35:46;;;;;;;10.10;8.13;;;;;;;27.45;47.08;99746.16;5033948;28;20025;-36
2021/08/12 03:38:12;;;;;;;11.48;8.10;;;;;;;27.70;46.27;99758.31;5032483;28;20032;-36
2021/08/12 03:40:37;;;;;;;27.88;21.55;;;;;;;27.69;46.28;99753.97;5033638;28;20034;-38
2021/08/12 03:43:03;;;;;;;16.15;12.27;;;;;;;27.64;46.02;99752.19;5033596;28;20026;-37
2021/08/12 03:45:28;;;;;;;12.95;9.32;;;;;;;27.48;46.63;99765.47;5033410;28;20017;-36
2021/08/12 03:47:54;;;;;;;13.60;9.35;;;;;;;27.57;46.36;99764.69;5033454;28;20033;-37
2021/08/12 03:50:19;;;;;;;13.13;7.88;;;;;;;27.66;45.99;99757.31;5033382;28;20025;-36
2021/08/12 03:52:44;;;;;;;11.15;8.13;;;;;;;27.72;46.12;99769.75;5033530;28;20068;-36
2021/08/12 03:55:10;;;;;;;11.43;8.00;;;;;;;27.88;45.50;99767.38;5033480;28;20025;-36
2021/08/12 03:57:41;;;;;;;12.27;7.85;;;;;;;28.04;45.24;99774.00;5033152;28;20057;-37
2021/08/12 04:00:07;;;;;;;9.68;7.90;;;;;;;27.94;45.52;99773.53;5033256;28;20499;-37
2021/08/12 04:02:33;;;;;;;10.50;8.00;;;;;;;27.91;45.59;99769.47;5033250;28;20033;-36
2021/08/12 04:04:58;;;;;;;9.43;8.40;;;;;;;28.07;45.26;99767.91;5033137;28;20052;-36
2021/08/12 04:07:24;;;;;;;13.35;7.93;;;;;;;28.25;44.87;99771.47;5052877;28;20029;-37
2021/08/12 04:09:49;;;;;;;9.95;8.07;;;;;;;28.58;44.22;99768.28;5053249;28;20028;-37
2021/08/12 04:12:15;;;;;;;15.77;8.13;;;;;;;28.66;44.22;99764.72;5052847;28;20025;-36
2021/08/12 04:14:40;;;;;;;27.08;11.93;;;;;;;28.97;43.61;99766.41;5053364;28;20033;-36
2021/08/12 04:17:06;;;;;;;18.30;9.30;;;;;;;29.18;43.52;99773.97;5053058;28;20017;-36
2021/08/12 04:19:31;;;;;;;19.33;9.95;;;;;;;29.53;42.85;99774.63;5052933;28;20029;-37
2021/08/12 04:21:56;;;;;;;19.20;8.98;;;;;;;29.69;42.75;99769.38;5052820;28;20047;-36
2021/08/12 04:24:22;;;;;;;14.43;8.43;;;;;;;29.82;42.36;99764.84;5052766;28;20025;-36
2021/08/12 04:26:47;;;;;;;23.27;8.43;;;;;;;30.14;41.37;99773.47;5052600;28;20025;-36
2021/08/12 04:29:13;;;;;;;15.98;7.93;;;;;;;30.26;41.11;99768.06;5052656;28;20024;-35
2021/08/12 04:31:38;;;;;;;14.20;8.05;;;;;;;30.59;40.93;99759.88;5052548;28;20465;-36
2021/08/12 04:34:04;;;;;;;17.88;7.88;;;;;;;30.79;40.17;99765.69;5052825;28;20032;-37
2021/08/12 04:36:29;;;;;;;18.92;8.30;;;;;;;30.92;39.39;99763.78;5052533;28;20017;-37
2021/08/12 04:38:55;;;;;;;25.08;11.90;;;;;;;31.09;39.03;99773.78;5052980;28;20032;-37
2021/08/12 04:41:22;;;;;;;20.95;10.05;;;;;;;31.48;38.50;99775.13;5051462;28;20029;-37
2021/08/12 04:43:47;;;;;;;18.02;9.15;;;;;;;31.88;37.62;99781.88;5052400;28;20512;-37
2021/08/12 04:46:13;;;;;;;13.45;8.15;;;;;;;32.30;36.53;99781.56;5052318;28;20059;-37
2021/08/12 04:48:38;;;;;;;14.18;8.07;;;;;;;32.64;36.10;99784.94;5052194;28;20025;-36
2021/08/12 04:51:04;;;;;;;10.98;7.70;;;;;;;32.88;35.44;99789.50;5052114;28;20035;-37
2021/08/12 04:53:29;;;;;;;12.55;7.47;;;;;;;32.56;35.94;99783.06;5051786;28;20477;-36
2021/08/12 04:55:54;;;;;;;11.45;7.00;;;;;;;32.67;35.83;99792.47;5051877;28;20017;-36
2021/08/12 04:58:20;;;;;;;8.77;6.82;;;;;;;32.98;35.21;99789.00;5051856;28;20074;-36
2021/08/12 05:00:45;;;;;;;13.23;7.47;;;;;;;33.12;35.19;99791.34;5052035;28;20029;-37
2021/08/12 05:03:11;;;;;;;10.57;7.00;;;;;;;33.32;35.08;99797.78;5052153;28;20017;-37
2021/08/12 05:05:36;;;;;;;11.00;7.30;;;;;;;33.70;34.13;99801.88;5046883;28;20398;-37
2021/08/12 05:08:02;;;;;;;13.48;7.78;;;;;;;33.97;33.88;99804.84;5031825;28;20033;-37
2021/08/12 05:10:28;;;;;;;11.15;7.88;;;;;;;34.12;33.47;99806.75;5031594;28;20025;-37
2021/08/12 05:12:53;;;;;;;11.25;7.68;;;;;;;34.16;33.49;99806.88;5031779;28;20036;-37
2021/08/12 05:15:19;;;;;;;12.23;7.40;;;;;;;34.51;32.88;99812.31;5031970;28;20021;-37
2021/08/12 05:17:44;;;;;;;13.05;7.80;;;;;;;34.73;32.71;99810.00;5031678;28;20029;-37
2021/08/12 05:20:10;;;;;;;14.43;8.60;;;;;;;34.74;32.63;99819.91;5031890;28;20033;-37
2021/08/12 05:22:36;;;;;;;11.77;8.00;;;;;;;34.93;32.26;99817.13;5031644;28;20025;-37
2021/08/12 05:25:03;;;;;;;13.43;8.88;;;;;;;34.99;32.32;99815.63;5031304;28;20025;-36
2021/08/12 05:27:29;;;;;;;11.27;8.18;;;;;;;34.90;32.79;99819.81;5031468;28;20033;-37
2021/08/12 05:29:54;;;;;;;10.98;8.13;;;;;;;34.77;32.78;99828.28;5031728;28;20031;-37
2021/08/12 05:32:20;;;;;;;12.35;8.70;;;;;;;34.20;33.52;99827.06;5031826;28;20025;-36
2021/08/12 05:34:45;;;;;;;14.75;8.45;;;;;;;34.54;33.09;99832.88;5031348;28;20095;-37
2021/08/12 05:37:11;;;;;;;12.95;7.63;;;;;;;34.80;32.36;99833.06;5031131;28;20084;-38
2021/08/12 05:39:36;;;;;;;12.27;7.85;;;;;;;35.48;32.01;99827.19;5030692;28;20441;-38
2021/08/12 05:42:02;;;;;;;11.85;7.60;;;;;;;35.89;31.01;99825.50;5030810;28;20082;-38
2021/08/12 05:44:27;;;;;;;11.68;7.55;;;;;;;35.80;31.22;99836.81;5030968;28;20063;-36
2021/08/12 05:46:52;;;;;;;10.45;7.63;;;;;;;36.61;30.19;99837.53;5031290;28;20079;-37
2021/08/12 05:49:22;;;;;;;13.13;7.70;;;;;;;37.15;29.17;99838.19;5030863;28;20040;-38
2021/08/12 05:51:47;;;;;;;13.25;7.30;;;;;;;37.28;29.15;99836.72;5030880;28;20040;-37
2021/08/12 05:54:13;;;;;;;12.13;7.60;;;;;;;37.39;28.84;99838.78;5030868;28;20025;-37
2021/08/12 05:56:38;;;;;;;10.50;7.55;;;;;;;37.79;28.26;99843.50;5031269;28;20032;-38
2021/08/12 05:59:04;;;;;;;9.65;7.43;;;;;;;38.14;27.99;99851.28;5031137;28;20525;-37
2021/08/12 06:01:29;;;;;;;12.20;7.00;;;;;;;37.82;28.08;99839.94;5030971;28;20032;-37
2021/08/12 06:03:55;;;;;;;11.65;6.82;;;;;;;37.68;27.84;99845.38;5030789;28;20037;-38
2021/08/12 06:06:20;;;;;;;11.10;7.25;;;;;;;37.72;28.09;99852.56;5041751;28;20056;-37
2021/08/12 06:08:46;;;;;;;12.98;6.93;;;;;;;38.26;27.18;99854.91;5050577;28;20032;-37
2021/08/12 06:11:11;;;;;;;16.48;7.38;;;;;;;38.32;26.87;99856.13;5050727;28;20025;-37
2021/08/12 06:13:37;;;;;;;15.50;6.93;;;;;;;38.33;27.20;99846.63;5050466;28;20087;-37
2021/08/12 06:16:03;;;;;;;10.05;6.40;;;;;;;38.25;26.86;99843.03;5050552;28;20439;-38
2021/08/12 06:18:28;;;;;;;13.73;6.30;;;;;;;38.76;26.07;99846.81;5050451;28;20025;-38
2021/08/12 06:20:54;;;;;;;8.27;5.88;;;;;;;38.39;26.66;99856.19;5050706;28;20029;-37
2021/08/12 06:23:19;;;;;;;9.73;5.68;;;;;;;38.87;26.03;99853.19;5050257;28;20021;-37
2021/08/12 06:25:45;;;;;;;8.77;6.18;;;;;;;39.06;25.28;99854.06;5050628;28;20028;-38
2021/08/12 06:28:10;;;;;;;9.15;5.95;;;;;;;39.63;24.60;99854.13;5050494;28;20404;-38
2021/08/12 06:30:36;;;;;;;11.70;6.15;;;;;;;39.55;24.52;99852.53;5050108;28;20429;-38
2021/08/12 06:33:02;;;;;;;9.82;6.30;;;;;;;39.47;24.66;99848.16;5050160;28;20049;-38
2021/08/12 06:35:31;;;;;;;9.40;6.25;;;;;;;39.67;24.41;99852.13;5050228;28;20021;-37
2021/08/12 06:37:57;;;;;;;14.30;6.10;;;;;;;39.51;24.96;99853.72;5050233;28;20032;-37
2021/08/12 06:40:22;;;;;;;10.98;6.22;;;;;;;40.09;24.55;99848.91;5050015;28;20025;-37
2021/08/12 06:42:48;;;;;;;16.33;6.60;;;;;;;40.52;23.66;99841.22;5049937;28;20470;-38
2021/08/12 06:45:15;;;;;;;15.52;6.20;;;;;;;40.89;23.32;99847.44;5050403;28;20053;-38
2021/08/12 06:47:40;;;;;;;9.80;5.97;;;;;;;40.94;22.71;99847.78;5050101;28;20017;-38
2021/08/12 06:50:06;;;;;;;14.77;6.70;;;;;;;40.39;23.93;99852.00;5050440;28;20025;-38
2021/08/12 06:52:31;;;;;;;7.82;5.65;;;;;;;40.46;23.45;99842.81;5049844;28;20025;-37
2021/08/12 06:54:57;;;;;;;7.35;5.68;;;;;;;40.32;23.25;99842.88;5050019;28;20085;-38
2021/08/12 06:57:22;;;;;;;9.02;6.05;;;;;;;40.40;23.09;99842.47;5049945;28;20021;-38
2021/08/12 06:59:48;;;;;;;9.02;5.45;;;;;;;40.84;22.53;99846.66;5049460;28;20037;-38
2021/08/12 07:02:13;;;;;;;9.57;5.40;;;;;;;41.28;22.38;99847.19;5049858;28;20083;-38
2021/08/12 07:04:39;;;;;;;7.38;5.90;;;;;;;40.69;23.08;99844.31;5049005;28;20131;-38
2021/08/12 07:07:04;;;;;;;7.78;5.93;;;;;;;41.44;22.19;99848.66;5031875;28;20393;-38
2021/08/12 07:09:30;;;;;;;6.78;5.78;;;;;;;41.82;21.72;99848.75;5029807;28;20033;-38
2021/08/12 07:11:56;;;;;;;9.02;5.13;;;;;;;41.07;22.77;99842.53;5029779;28;20026;-38
2021/08/12 07:14:21;;;;;;;9.43;5.70;;;;;;;40.95;22.67;99837.41;5029706;28;20350;-38
2021/08/12 07:16:47;;;;;;;9.10;5.50;;;;;;;40.71;22.65;99847.47;5029986;28;20029;-39
2021/08/12 07:19:12;;;;;;;5.80;5.15;;;;;;;41.20;22.30;99845.63;5029522;28;20392;-39
2021/08/12 07:21:39;;;;;;;10.75;5.22;;;;;;;41.83;21.87;99848.31;5029678;28;20022;-38
2021/08/12 07:24:05;;;;;;;11.73;5.55;;;;;;;41.67;21.45;99843.28;5029741;28;20037;-37
2021/08/12 07:26:30;;;;;;;10.68;5.82;;;;;;;41.67;21.91;99845.28;5029639;28;20058;-37
2021/08/12 07:28:56;;;;;;;8.25;5.60;;;;;;;41.19;22.54;99844.03;5029563;28;20022;-37
2021/08/12 07:31:21;;;;;;;7.55;5.20;;;;;;;41.76;21.70;99845.59;5029478;28;20477;-38
2021/08/12 07:33:47;;;;;;;9.38;5.32;;;;;;;42.07;21.72;99849.28;5029648;28;20018;-38
2021/08/12 07:36:12;;;;;;;8.27;5.55;;;;;;;42.47;21.14;99848.84;5029593;28;20021;-39
2021/08/12 07:38:37;;;;;;;7.82;5.47;;;;;;;42.46;20.87;99850.00;5028272;28;20075;-38
2021/08/12 07:41:03;;;;;;;9.18;5.35;;;;;;;43.17;20.21;99851.06;5029561;28;20033;-38
2021/08/12 07:43:29;;;;;;;7.20;5.72;;;;;;;43.22;20.09;99855.38;5029626;28;20426;-38
2021/08/12 07:45:54;;;;;;;6.03;5.45;;;;;;;43.02;20.24;99858.09;5029542;28;20503;-38
2021/08/12 07:48:20;;;;;;;7.93;5.60;;;;;;;43.23;20.24;99857.75;5029038;28;20041;-38
2021/08/12 07:50:46;;;;;;;9.00;5.38;;;;;;;42.99;20.52;99861.75;5029320;28;20033;-38
2021/08/12 07:53:12;;;;;;;7.15;5.25;;;;;;;42.91;20.16;99864.63;5029548;28;20469;-39
2021/08/12 07:55:37;;;;;;;9.43;5.38;;;;;;;43.13;19.93;99867.91;5029526;28;20030;-39
2021/08/12 07:58:03;;;;;;;9.05;5.68;;;;;;;43.53;19.75;99861.72;5029537;28;20137;-40
2021/08/12 08:00:28;;;;;;;9.25;5.53;;;;;;;43.89;19.07;99863.91;5029272;28;20417;-39
2021/08/12 08:02:54;;;;;;;7.95;5.57;;;;;;;43.80;19.60;99870.06;5029356;28;20029;-38
2021/08/12 08:05:21;;;;;;;5.95;5.35;;;;;;;43.99;19.43;99867.72;5032023;28;20037;-38
2021/08/12 08:07:47;;;;;;;8.65;5.20;;;;;;;43.93;19.21;99862.59;5049764;28;20115;-38
2021/08/12 08:10:13;;;;;;;7.63;5.60;;;;;;;43.93;19.17;99859.81;5049194;28;20032;-39
2021/08/12 08:12:40;;;;;;;8.68;5.60;;;;;;;43.97;18.95;99858.97;5049175;28;20031;-39
2021/08/12 08:15:06;;;;;;;7.60;5.78;;;;;;;44.23;18.90;99855.25;5049316;28;20437;-38
2021/08/12 08:17:31;;;;;;;8.68;5.50;;;;;;;44.14;18.38;99846.63;5052521;28;20120;-38
2021/08/12 08:19:57;;;;;;;9.75;5.32;;;;;;;44.09;18.70;99849.91;5052546;28;20040;-39
2021/08/12 08:22:24;;;;;;;6.90;5.60;;;;;;;43.79;19.35;99848.84;5052915;28;20111;-39
2021/08/12 08:24:50;;;;;;;6.18;5.57;;;;;;;43.80;18.75;99850.44;5052823;28;20025;-37
2021/08/12 08:27:15;;;;;;;10.85;5.50;;;;;;;43.53;19.26;99848.50;5052732;28;20074;-37
2021/08/12 08:29:40;;;;;;;8.75;5.03;;;;;;;43.86;19.00;99845.16;5052681;28;20052;-38
2021/08/12 08:32:06;;;;;;;8.98;5.07;;;;;;;44.08;18.42;99840.72;5052581;28;20086;-39
2021/08/12 08:34:32;;;;;;;8.45;5.40;;;;;;;44.07;18.50;99836.31;5052690;28;20108;-39
2021/08/12 08:36:57;;;;;;;13.13;5.68;;;;;;;43.90;18.83;99834.66;5052383;28;20400;-38
2021/08/12 08:39:23;;;;;;;9.52;5.55;;;;;;;43.35;19.50;99836.81;5052142;28;20139;-39
2021/08/12 08:41:48;;;;;;;10.98;5.38;;;;;;;43.88;18.73;99829.47;5052062;28;20027;-39
2021/08/12 08:44:14;;;;;;;5.93;5.10;;;;;;;43.83;18.29;99830.00;5051091;28;20029;-39
2021/08/12 08:46:39;;;;;;;8.48;5.07;;;;;;;43.19;18.59;99831.84;5050881;28;20547;-40
2021/08/12 08:49:05;;;;;;;7.25;5.20;;;;;;;43.63;17.87;99823.53;5052252;28;20033;-38
2021/08/12 08:51:33;;;;;;;8.98;5.47;;;;;;;43.48;17.56;99828.59;5050615;28;20025;-39
2021/08/12 08:53:59;;;;;;;6.07;5.00;;;;;;;43.18;18.19;99832.25;5051995;28;20103;-38
2021/08/12 08:56:24;;;;;;;5.57;4.90;;;;;;;43.77;17.83;99826.09;5050826;28;20037;-38
2021/08/12 08:58:50;;;;;;;7.50;5.18;;;;;;;44.22;17.67;99825.63;5050560;28;20021;-39
2021/08/12 09:01:15;;;;;;;6.20;5.60;;;;;;;43.86;18.07;99819.94;5050668;28;20036;-39
2021/08/12 09:03:40;;;;;;;12.38;5.60;;;;;;;44.00;17.38;99825.22;5050337;28;20461;-39
2021/08/12 09:06:06;;;;;;;8.55;5.10;;;;;;;44.00;17.09;99816.81;5051366;28;20052;-39
2021/08/12 09:08:32;;;;;;;6.97;4.80;;;;;;;43.20;17.10;99816.63;5050386;28;20024;-38
2021/08/12 09:10:57;;;;;;;8.77;3.95;;;;;;;43.02;16.39;99814.13;5051297;28;20021;-37
2021/08/12 09:13:23;;;;;;;4.28;3.70;;;;;;;42.91;15.84;99813.50;5051432;28;20017;-38
2021/08/12 09:15:48;;;;;;;5.30;3.95;;;;;;;42.14;16.44;99803.72;5051722;28;20021;-38
2021/08/12 09:18:21;;;;;;;9.07;4.55;;;;;;;41.83;16.94;99800.03;5051386;28;20071;-38
2021/08/12 09:20:49;;;;;;;6.72;4.10;;;;;;;41.83;17.46;99795.22;5051469;28;20070;-37
2021/08/12 09:23:14;;;;;;;;;;;;;;;41.02;18.24;99803.91;5052283;28;20025;-39
2021/08/12 09:25:44;;;;;;;5.67;4.37;;;;;;;41.75;17.66;99796.53;5051715;28;19915;-38
2021/08/12 09:28:21;;;;;;;6.97;4.10;;;;;;;41.99;17.42;99795.44;5051585;28;20260;-40
2021/08/12 09:30:49;;;;;;;4.70;4.25;;;;;;;42.68;16.78;99784.22;5051448;28;20135;-38
2021/08/12 09:33:15;;;;;;;;;;;;;;;43.28;16.60;99787.31;5051697;28;20448;-39
2021/08/12 09:35:41;;;;;;;7.05;4.30;;;;;;;42.40;17.30;99779.78;5051471;28;19908;-39
2021/08/12 09:38:09;;;;;;;4.95;4.32;;;;;;;42.27;16.80;99790.75;5051280;28;20024;-39
2021/08/12 09:40:34;;;;;;;9.40;4.27;;;;;;;43.03;16.56;99798.94;5051397;28;20033;-38
2021/08/12 09:43:02;;;;;;;6.88;4.50;;;;;;;43.12;16.17;99790.75;5050964;28;20264;-39
2021/08/12 09:45:28;;;;;;;7.22;4.10;;;;;;;42.85;15.96;99799.16;5051210;28;20032;-38
2021/08/12 09:47:54;;;;;;;6.00;4.43;;;;;;;42.45;16.41;99798.91;5051338;28;20127;-38
2021/08/12 09:50:23;;;;;;;5.70;4.40;;;;;;;41.56;16.59;99795.88;5051140;28;20515;-38
2021/08/12 09:52:49;;;;;;;6.18;4.13;;;;;;;41.75;16.32;99783.34;5050832;28;20017;-39
2021/08/12 09:55:18;;;;;;;6.78;4.45;;;;;;;41.75;16.40;99788.13;5051040;28;20035;-39
2021/08/12 09:57:48;;;;;;;4.22;3.80;;;;;;;41.48;16.73;99780.41;5050513;28;20070;-39
2021/08/12 10:00:14;;;;;;;8.00;4.40;;;;;;;42.16;16.02;99788.09;5051166;28;20515;-40
2021/08/12 10:02:40;;;;;;;7.32;4.03;;;;;;;40.82;17.26;99793.28;5050711;28;20100;-39
2021/08/12 10:05:07;;;;;;;7.25;4.90;;;;;;;40.42;17.61;99780.72;5049785;28;20045;-39
2021/08/12 10:07:45;;;;;;;6.47;4.60;;;;;;;40.96;16.85;99780.44;5030640;28;20021;-38
2021/08/12 10:10:12;;;;;;;7.13;4.43;;;;;;;41.83;17.17;99784.06;5030328;28;20082;-39
2021/08/12 10:12:42;;;;;;;6.07;4.22;;;;;;;41.90;17.59;99778.41;5030327;28;20334;-38
2021/08/12 10:15:10;;;;;;;5.53;4.10;;;;;;;42.08;16.98;99777.41;5030756;28;20045;-38
2021/08/12 10:17:36;;;;;;;7.10;4.60;;;;;;;41.78;17.13;99785.31;5030713;28;20064;-38
2021/08/12 10:20:01;;;;;;;6.20;4.40;;;;;;;41.76;17.01;99786.94;5012865;28;20040;-38
2021/08/12 10:22:27;;;;;;;6.90;4.50;;;;;;;41.10;17.64;99779.53;5030585;28;20022;-38
2021/08/12 10:24:52;;;;;;;7.40;4.30;;;;;;;41.80;17.14;99776.53;5029296;28;20025;-37
2021/08/12 10:27:18;;;;;;;5.05;4.40;;;;;;;42.60;16.04;99779.19;5028921;28;20032;-38
2021/08/12 10:29:43;;;;;;;6.60;4.30;;;;;;;42.72;15.76;99778.56;5012929;28;20032;-37
2021/08/12 10:32:09;;;;;;;9.48;4.20;;;;;;;42.87;15.68;99779.94;5013059;28;20025;-37
2021/08/12 10:34:34;;;;;;;5.90;4.15;;;;;;;43.29;15.63;99774.13;5029212;28;20025;-38
2021/08/12 10:37:00;;;;;;;5.07;4.47;;;;;;;43.73;15.30;99772.13;5028493;28;20029;-38
2021/08/12 10:39:25;;;;;;;5.40;4.38;;;;;;;43.83;15.15;99779.56;5028020;28;20025;-39
2021/08/12 10:41:51;;;;;;;6.28;4.03;;;;;;;42.95;15.19;99772.25;5028725;28;20431;-39
2021/08/12 10:44:20;;;;;;;10.20;4.43;;;;;;;42.13;15.95;99771.38;5028824;28;20029;-39
2021/08/12 10:46:45;;;;;;;6.72;4.15;;;;;;;41.94;15.67;99775.56;5028574;28;20125;-39
2021/08/12 10:49:26;;;;;;;5.65;4.18;;;;;;;41.30;16.46;99763.84;5029751;28;20074;-37
2021/08/12 10:52:09;;;;;;;4.78;4.05;;;;;;;41.01;16.56;99758.47;5029712;28;20171;-37
2021/08/12 10:54:36;;;;;;;6.10;4.45;;;;;;;41.23;16.84;99761.09;5030406;28;20105;-38
2021/08/12 10:57:23;;;;;;;4.40;4.00;;;;;;;41.53;16.64;99762.44;5029823;28;20051;-38
2021/08/12 10:59:50;;;;;;;5.25;4.20;;;;;;;42.05;16.29;99769.88;5029917;28;20087;-38
2021/08/12 11:02:35;;;;;;;4.55;4.10;;;;;;;42.55;16.00;99774.81;5029731;28;20035;-38
2021/08/12 11:05:01;;;;;;;5.03;4.38;;;;;;;42.63;16.16;99772.72;5029411;28;20026;-39
2021/08/12 11:07:39;;;;;;;7.15;4.40;;;;;;;41.73;17.00;99769.00;5029789;28;20434;-39
2021/08/12 11:10:06;;;;;;;;;;;;;;;42.07;16.54;99775.84;5030629;28;20053;-39
2021/08/12 11:12:53;;;;;;;5.30;4.07;;;;;;;41.76;16.89;99778.56;5029561;28;19992;-38
2021/08/12 11:15:37;;;;;;;7.20;4.35;;;;;;;41.18;17.72;99776.25;5030128;28;20029;-38
2021/08/12 11:18:04;;;;;;;4.93;4.30;;;;;;;40.49;18.14;99772.31;5030113;28;20044;-37
2021/08/12 11:20:35;;;;;;;6.60;4.60;;;;;;;39.88;19.19;99770.56;5029978;28;20049;-38
2021/08/12 11:23:19;;;;;;;8.45;5.03;;;;;;;38.71;20.89;99770.16;5028533;28;20474;-38
2021/08/12 11:26:12;;;;;;;9.55;5.28;;;;;;;38.53;21.28;99774.84;5029451;28;20114;-38
2021/08/12 11:28:40;;;;;;;6.88;4.80;;;;;;;38.23;21.99;99777.91;5029273;28;20108;-38
2021/08/12 11:31:09;;;;;;;;;;;;;;;38.21;22.02;99777.50;5030230;28;20129;-38